createdAt,value
2018-12-05T00:00:14.229Z,4.13
2018-12-05T00:02:41.640Z,3.57
2018-12-05T00:05:09.069Z,3.47
2018-12-05T00:07:36.525Z,3.80
2018-12-05T00:10:04.606Z,3.80
2018-12-05T00:12:32.049Z,4.27
2018-12-05T00:14:59.455Z,4.23
2018-12-05T00:17:26.930Z,3.97
2018-12-05T00:19:54.956Z,3.93
2018-12-05T00:22:22.518Z,5.00
2018-12-05T00:24:49.957Z,5.47
2018-12-05T00:27:17.359Z,5.53
2018-12-05T00:29:44.888Z,5.70
2018-12-05T00:32:12.419Z,5.40
2018-12-05T00:34:39.890Z,5.33
2018-12-05T00:37:07.396Z,4.97
2018-12-05T00:39:34.814Z,5.47
2018-12-05T00:42:02.298Z,4.47
2018-12-05T00:44:29.776Z,4.70
2018-12-05T00:46:57.228Z,4.60
2018-12-05T00:49:24.646Z,4.57
2018-12-05T00:51:52.068Z,4.10
2018-12-05T00:54:19.484Z,4.60
2018-12-05T00:56:46.958Z,3.90
2018-12-05T00:59:14.379Z,4.00
2018-12-05T01:01:41.791Z,3.83
2018-12-05T01:04:09.202Z,4.77
2018-12-05T01:06:36.686Z,4.47
2018-12-05T01:09:06.089Z,4.17
2018-12-05T01:11:34.810Z,3.67
2018-12-05T01:14:02.420Z,3.47
2018-12-05T01:16:30.372Z,3.13
2018-12-05T01:18:58.307Z,4.40
2018-12-05T01:21:25.760Z,3.77
2018-12-05T01:23:53.168Z,4.30
2018-12-05T01:26:20.653Z,4.50
2018-12-05T01:28:48.058Z,3.80
2018-12-05T01:31:15.542Z,4.60
2018-12-05T01:33:43.013Z,4.70
2018-12-05T01:36:10.474Z,4.47
2018-12-05T01:38:37.976Z,4.47
2018-12-05T01:41:05.413Z,4.40
2018-12-05T01:43:38.761Z,3.80
2018-12-05T01:46:06.216Z,4.60
2018-12-05T01:48:33.639Z,3.93
2018-12-05T01:51:01.077Z,4.03
2018-12-05T01:53:28.522Z,4.60
2018-12-05T01:55:56.002Z,4.10
2018-12-05T01:58:23.417Z,4.53
2018-12-05T02:00:50.857Z,4.33
2018-12-05T02:03:18.346Z,4.70
2018-12-05T02:05:45.848Z,4.67
2018-12-05T02:08:13.286Z,5.27
2018-12-05T02:10:40.726Z,5.13
2018-12-05T02:13:09.851Z,5.20
2018-12-05T02:15:37.409Z,5.70
2018-12-05T02:18:04.821Z,6.10
2018-12-05T02:20:32.301Z,5.23
2018-12-05T02:22:59.723Z,5.47
2018-12-05T02:25:27.198Z,4.93
2018-12-05T02:27:54.710Z,7.20
2018-12-05T02:30:22.138Z,5.07
2018-12-05T02:32:49.550Z,4.73
2018-12-05T02:35:17.012Z,5.37
2018-12-05T02:37:44.497Z,4.93
2018-12-05T02:40:11.912Z,5.50
2018-12-05T02:42:39.421Z,6.33
2018-12-05T02:45:06.929Z,5.80
2018-12-05T02:47:34.410Z,5.50
2018-12-05T02:50:01.926Z,4.93
2018-12-05T02:52:29.335Z,5.07
2018-12-05T02:54:56.833Z,5.60
2018-12-05T02:57:24.241Z,4.77
2018-12-05T02:59:51.657Z,6.23
2018-12-05T03:02:19.108Z,5.07
2018-12-05T03:04:46.609Z,5.33
2018-12-05T03:07:14.058Z,4.93
2018-12-05T03:09:41.489Z,4.67
2018-12-05T03:12:08.977Z,5.20
2018-12-05T03:14:36.433Z,5.33
2018-12-05T03:17:03.943Z,5.40
2018-12-05T03:19:31.509Z,5.80
2018-12-05T03:21:58.920Z,5.43
2018-12-05T03:24:26.394Z,5.60
2018-12-05T03:26:53.878Z,5.10
2018-12-05T03:29:21.322Z,5.50
2018-12-05T03:31:48.906Z,4.63
2018-12-05T03:34:16.360Z,4.53
2018-12-05T03:36:43.844Z,5.33
2018-12-05T03:39:11.333Z,4.97
2018-12-05T03:41:38.825Z,5.20
2018-12-05T03:44:06.253Z,5.10
2018-12-05T03:46:33.677Z,5.10
2018-12-05T03:49:01.095Z,5.07
2018-12-05T03:51:29.559Z,5.20
2018-12-05T03:53:57.018Z,5.50
2018-12-05T03:56:24.441Z,4.93
2018-12-05T03:58:51.848Z,5.50
2018-12-05T04:01:19.418Z,5.23
2018-12-05T04:03:46.898Z,5.00
2018-12-05T04:06:14.318Z,5.10
2018-12-05T04:08:41.802Z,4.60
2018-12-05T04:11:09.226Z,5.23
2018-12-05T04:13:36.730Z,4.80
2018-12-05T04:16:04.257Z,5.30
2018-12-05T04:18:31.672Z,4.50
2018-12-05T04:20:59.168Z,4.70
2018-12-05T04:23:26.573Z,4.83
2018-12-05T04:25:54.053Z,4.17
2018-12-05T04:28:21.540Z,3.80
2018-12-05T04:30:49.026Z,3.47
2018-12-05T04:33:16.502Z,3.70
2018-12-05T04:35:43.927Z,3.20
2018-12-05T04:38:11.369Z,2.80
2018-12-05T04:40:38.823Z,3.07
2018-12-05T04:43:06.340Z,2.87
2018-12-05T04:45:33.754Z,3.37
2018-12-05T04:48:01.173Z,3.23
2018-12-05T04:50:28.579Z,3.60
2018-12-05T04:52:56.064Z,3.93
2018-12-05T04:55:23.541Z,4.70
2018-12-05T04:57:51.041Z,4.80
2018-12-05T05:00:18.489Z,4.90
2018-12-05T05:02:45.973Z,3.93
2018-12-05T05:05:13.413Z,4.67
2018-12-05T05:07:40.830Z,4.90
2018-12-05T05:10:08.260Z,4.53
2018-12-05T05:12:35.676Z,3.97
2018-12-05T05:15:03.216Z,4.43
2018-12-05T05:17:30.642Z,4.10
2018-12-05T05:19:58.043Z,5.67
2018-12-05T05:22:25.478Z,4.30
2018-12-05T05:24:52.950Z,4.17
2018-12-05T05:27:20.361Z,6.03
2018-12-05T05:29:47.862Z,5.47
2018-12-05T05:32:15.278Z,4.87
2018-12-05T05:34:42.700Z,5.70
2018-12-05T05:37:10.178Z,6.30
2018-12-05T05:39:37.593Z,5.50
2018-12-05T05:42:05.089Z,5.77
2018-12-05T05:44:32.502Z,5.17
2018-12-05T05:46:59.942Z,4.77
2018-12-05T05:49:27.427Z,5.13
2018-12-05T05:52:03.088Z,5.90
2018-12-05T05:54:30.533Z,4.90
2018-12-05T05:56:58.205Z,5.20
2018-12-05T05:59:26.529Z,4.97
2018-12-05T06:01:54.015Z,5.70
2018-12-05T06:04:21.421Z,4.87
2018-12-05T06:06:48.835Z,5.23
2018-12-05T06:09:16.255Z,6.57
2018-12-05T06:11:43.738Z,6.27
2018-12-05T06:14:11.140Z,9.17
2018-12-05T06:16:38.582Z,6.40
2018-12-05T06:19:06.054Z,5.90
2018-12-05T06:21:33.531Z,5.50
2018-12-05T06:24:00.935Z,5.87
2018-12-05T06:26:28.725Z,5.40
2018-12-05T06:28:56.281Z,5.23
2018-12-05T06:31:24.338Z,4.87
2018-12-05T06:33:51.748Z,6.43
2018-12-05T06:36:19.243Z,5.00
2018-12-05T06:38:46.649Z,4.87
2018-12-05T06:41:14.062Z,5.40
2018-12-05T06:43:41.518Z,7.90
2018-12-05T06:46:08.993Z,6.20
2018-12-05T06:48:36.505Z,5.67
2018-12-05T06:51:03.994Z,5.87
2018-12-05T06:53:31.397Z,5.60
2018-12-05T06:55:58.897Z,5.33
2018-12-05T06:58:26.473Z,5.70
2018-12-05T07:00:53.926Z,5.90
2018-12-05T07:03:21.329Z,5.93
2018-12-05T07:05:48.738Z,5.90
2018-12-05T07:08:16.226Z,7.60
2018-12-05T07:10:43.707Z,12.53
2018-12-05T07:13:11.121Z,6.67
2018-12-05T07:15:38.537Z,6.27
2018-12-05T07:18:05.995Z,5.53
2018-12-05T07:20:33.469Z,6.07
2018-12-05T07:23:00.930Z,6.13
2018-12-05T07:25:28.341Z,5.70
2018-12-05T07:27:55.748Z,5.73
2018-12-05T07:30:29.342Z,5.77
2018-12-05T07:32:52.544Z,6.40
2018-12-05T07:35:20.054Z,6.37
2018-12-05T07:37:47.466Z,6.33
2018-12-05T07:40:14.982Z,6.17
2018-12-05T07:42:43.512Z,5.10
2018-12-05T07:45:11.118Z,6.10
2018-12-05T07:47:38.597Z,5.50
2018-12-05T07:50:06.057Z,6.37
2018-12-05T07:52:33.533Z,6.00
2018-12-05T07:55:00.939Z,7.20
2018-12-05T07:57:28.421Z,5.20
2018-12-05T07:59:55.865Z,5.50
2018-12-05T08:02:23.374Z,5.40
2018-12-05T08:04:50.779Z,4.87
2018-12-05T08:07:18.255Z,5.40
2018-12-05T08:09:45.740Z,5.90
2018-12-05T08:12:13.256Z,6.10
2018-12-05T08:14:40.661Z,5.73
2018-12-05T08:17:08.198Z,6.80
2018-12-05T08:19:35.670Z,5.53
2018-12-05T08:22:03.161Z,28.00
2018-12-05T08:24:30.782Z,21.07
2018-12-05T08:26:58.205Z,6.00
2018-12-05T08:29:25.613Z,6.27
2018-12-05T08:31:53.029Z,5.37
2018-12-05T08:34:20.577Z,5.33
2018-12-05T08:36:48.090Z,5.33
2018-12-05T08:39:16.829Z,5.27
2018-12-05T08:41:44.241Z,4.93
2018-12-05T08:44:11.658Z,4.97
2018-12-05T08:46:39.137Z,4.77
2018-12-05T08:49:06.541Z,4.83
2018-12-05T08:51:34.351Z,5.63
2018-12-05T08:54:01.773Z,5.30
2018-12-05T08:56:29.181Z,6.53
2018-12-05T08:58:56.602Z,5.70
2018-12-05T09:01:24.078Z,6.10
2018-12-05T09:03:51.526Z,4.50
2018-12-05T09:06:19.049Z,5.70
2018-12-05T09:08:46.517Z,5.27
2018-12-05T09:11:14.029Z,4.83
2018-12-05T09:13:41.446Z,4.17
2018-12-05T09:16:08.855Z,3.97
2018-12-05T09:18:36.446Z,3.60
2018-12-05T09:21:03.853Z,4.67
2018-12-05T09:23:31.269Z,4.23
2018-12-05T09:25:58.761Z,4.00
2018-12-05T09:28:26.206Z,4.13
2018-12-05T09:30:53.621Z,4.23
2018-12-05T09:33:21.045Z,4.67
2018-12-05T09:35:48.725Z,4.53
2018-12-05T09:38:16.130Z,4.07
2018-12-05T09:40:43.606Z,4.23
2018-12-05T09:43:11.017Z,9.40
2018-12-05T09:45:38.474Z,6.33
2018-12-05T09:48:06.078Z,5.30
2018-12-05T09:50:33.589Z,5.10
2018-12-05T09:53:00.998Z,4.47
2018-12-05T09:55:28.406Z,4.37
2018-12-05T09:57:55.899Z,4.90
2018-12-05T10:00:23.387Z,5.07
2018-12-05T10:02:50.791Z,4.63
2018-12-05T10:05:18.221Z,5.30
2018-12-05T10:07:45.729Z,5.50
2018-12-05T10:10:13.286Z,5.07
2018-12-05T10:12:40.742Z,9.73
2018-12-05T10:15:08.189Z,6.57
2018-12-05T10:17:35.793Z,7.10
2018-12-05T10:20:03.549Z,5.33
2018-12-05T10:22:31.079Z,4.87
2018-12-05T10:24:58.557Z,5.07
2018-12-05T10:27:26.065Z,5.70
2018-12-05T10:29:53.521Z,5.50
2018-12-05T10:32:21.005Z,5.87
2018-12-05T10:34:48.710Z,5.90
2018-12-05T10:37:16.097Z,5.97
2018-12-05T10:39:43.514Z,5.63
2018-12-05T10:42:10.925Z,6.43
2018-12-05T10:44:38.341Z,6.13
2018-12-05T10:47:05.751Z,6.47
2018-12-05T10:49:33.273Z,6.20
2018-12-05T10:52:00.744Z,5.87
2018-12-05T10:54:28.158Z,5.97
2018-12-05T10:56:55.580Z,6.47
2018-12-05T10:59:23.066Z,7.33
2018-12-05T11:01:56.345Z,7.17
2018-12-05T11:04:29.645Z,7.67
2018-12-05T11:07:02.950Z,6.77
2018-12-05T11:09:36.373Z,6.63
2018-12-05T11:15:19.937Z,6.40
2018-12-05T11:17:51.182Z,6.17
2018-12-05T11:20:24.279Z,6.97
2018-12-05T11:22:57.445Z,14.13
2018-12-05T11:25:24.872Z,7.97
2018-12-05T11:27:53.365Z,8.20
2018-12-05T11:30:20.822Z,7.13
2018-12-05T11:32:48.369Z,7.07
2018-12-05T11:35:15.857Z,7.13
2018-12-05T11:37:43.278Z,6.80
2018-12-05T11:40:10.733Z,7.17
2018-12-05T11:42:38.166Z,7.17
2018-12-05T11:45:05.641Z,7.40
2018-12-05T11:47:33.114Z,7.90
2018-12-05T11:50:00.636Z,7.10
2018-12-05T11:52:29.472Z,7.47
2018-12-05T11:54:56.896Z,7.87
2018-12-05T11:57:24.321Z,7.60
2018-12-05T11:59:51.777Z,7.60
2018-12-05T12:02:22.453Z,7.97
2018-12-05T12:04:49.283Z,7.40
2018-12-05T12:07:17.714Z,8.00
2018-12-05T12:09:45.210Z,8.23
2018-12-05T12:12:18.479Z,8.93
2018-12-05T12:14:45.907Z,8.50
2018-12-05T12:17:13.434Z,10.33
2018-12-05T12:19:40.932Z,8.60
2018-12-05T12:22:08.433Z,9.67
2018-12-05T12:24:35.922Z,9.13
2018-12-05T12:27:03.457Z,8.27
2018-12-05T12:29:30.937Z,8.73
2018-12-05T12:31:58.361Z,7.90
2018-12-05T12:34:25.819Z,7.70
2018-12-05T12:36:53.309Z,12.83
2018-12-05T12:39:20.906Z,11.43
2018-12-05T12:41:48.344Z,8.83
2018-12-05T12:44:15.834Z,8.73
2018-12-05T12:46:43.413Z,8.13
2018-12-05T12:49:10.933Z,7.57
2018-12-05T12:51:41.265Z,8.00
2018-12-05T12:54:08.664Z,8.27
2018-12-05T12:56:36.149Z,8.07
2018-12-05T12:59:03.578Z,8.93
2018-12-05T13:01:31.102Z,8.90
2018-12-05T13:03:58.593Z,8.97
2018-12-05T13:06:26.034Z,8.87
2018-12-05T13:08:53.481Z,8.23
2018-12-05T13:11:20.978Z,8.23
2018-12-05T13:13:48.389Z,9.47
2018-12-05T13:16:16.382Z,10.03
2018-12-05T13:18:43.842Z,10.07
2018-12-05T13:21:11.386Z,9.97
2018-12-05T13:23:38.881Z,8.10
2018-12-05T13:26:06.297Z,9.70
2018-12-05T13:28:33.786Z,9.47
2018-12-05T13:31:01.214Z,8.00
2018-12-05T13:33:28.797Z,8.83
2018-12-05T13:35:56.212Z,8.37
2018-12-05T13:38:23.641Z,8.07
2018-12-05T13:40:51.154Z,9.70
2018-12-05T13:43:18.673Z,8.30
2018-12-05T13:45:46.169Z,8.00
2018-12-05T13:48:14.538Z,8.90
2018-12-05T13:50:41.986Z,8.80
2018-12-05T13:53:09.481Z,8.40
2018-12-05T13:55:36.924Z,8.33
2018-12-05T13:58:04.461Z,10.53
2018-12-05T14:00:31.934Z,11.93
2018-12-05T14:02:59.341Z,9.23
2018-12-05T14:05:26.793Z,8.93
2018-12-05T14:07:54.218Z,8.10
2018-12-05T14:10:22.646Z,9.03
2018-12-05T14:12:50.151Z,9.23
2018-12-05T14:15:17.687Z,9.60
2018-12-05T14:17:45.265Z,9.03
2018-12-05T14:20:12.689Z,8.60
2018-12-05T14:22:40.110Z,9.00
2018-12-05T14:25:07.629Z,9.37
2018-12-05T14:27:35.170Z,24.80
2018-12-05T14:30:02.725Z,16.20
2018-12-05T14:32:30.165Z,11.47
2018-12-05T14:34:57.591Z,10.40
2018-12-05T14:37:25.327Z,10.27
2018-12-05T14:39:52.814Z,9.33
2018-12-05T14:42:20.269Z,9.27
2018-12-05T14:44:47.790Z,9.27
2018-12-05T14:47:15.217Z,9.20
2018-12-05T14:49:42.721Z,9.50
2018-12-05T14:52:12.828Z,9.63
2018-12-05T14:54:40.229Z,19.93
2018-12-05T14:57:07.653Z,10.47
2018-12-05T14:59:35.080Z,9.43
2018-12-05T15:02:02.545Z,10.53
2018-12-05T15:04:30.037Z,10.57
2018-12-05T15:06:57.481Z,9.77
2018-12-05T15:09:25.002Z,9.03
2018-12-05T15:11:52.425Z,8.63
2018-12-05T15:14:19.917Z,9.03
2018-12-05T15:16:47.445Z,8.67
2018-12-05T15:19:14.865Z,10.17
2018-12-05T15:21:42.356Z,9.33
2018-12-05T15:24:09.842Z,9.87
2018-12-05T15:26:37.306Z,9.23
2018-12-05T15:29:04.726Z,11.40
2018-12-05T15:31:34.559Z,16.37
2018-12-05T15:34:02.075Z,11.60
2018-12-05T15:36:29.570Z,11.13
2018-12-05T15:38:57.001Z,10.60
2018-12-05T15:41:24.442Z,12.03
2018-12-05T15:43:51.865Z,11.67
2018-12-05T15:46:19.365Z,10.20
2018-12-05T15:48:46.861Z,10.87
2018-12-05T15:51:15.859Z,9.90
2018-12-05T15:53:43.477Z,9.57
2018-12-05T15:56:10.965Z,10.60
2018-12-05T15:58:38.442Z,9.63
2018-12-05T16:01:05.861Z,11.60
2018-12-05T16:03:33.349Z,10.77
2018-12-05T16:06:00.896Z,10.60
2018-12-05T16:08:28.317Z,9.77
2018-12-05T16:10:55.746Z,10.73
2018-12-05T16:13:23.277Z,10.87
2018-12-05T16:15:50.798Z,11.07
2018-12-05T16:18:18.242Z,10.43
2018-12-05T16:20:45.692Z,10.93
2018-12-05T16:23:13.189Z,9.57
2018-12-05T16:25:40.642Z,11.07
2018-12-05T16:28:08.069Z,10.17
2018-12-05T16:30:35.563Z,10.47
2018-12-05T16:33:04.430Z,10.33
2018-12-05T16:35:31.857Z,10.03
2018-12-05T16:37:59.342Z,10.43
2018-12-05T16:40:26.809Z,11.27
2018-12-05T16:42:54.233Z,11.10
2018-12-05T16:45:21.731Z,10.57
2018-12-05T16:47:50.178Z,10.73
2018-12-05T16:50:17.593Z,10.67
2018-12-05T16:52:45.088Z,10.63
2018-12-05T16:55:12.546Z,11.73
2018-12-05T16:57:39.970Z,13.50
2018-12-05T17:00:08.709Z,11.47
2018-12-05T17:02:36.201Z,10.27
2018-12-05T17:05:04.354Z,10.23
2018-12-05T17:07:31.849Z,10.30
2018-12-05T17:09:59.351Z,10.17
2018-12-05T17:12:26.863Z,10.00
2018-12-05T17:14:54.285Z,10.53
2018-12-05T17:17:21.773Z,11.40
2018-12-05T17:19:49.199Z,11.00
2018-12-05T17:22:16.685Z,13.20
2018-12-05T17:24:44.223Z,10.60
2018-12-05T17:27:11.765Z,11.13
2018-12-05T17:29:39.189Z,11.23
2018-12-05T17:32:06.692Z,10.17
2018-12-05T17:34:34.364Z,10.90
2018-12-05T17:37:01.873Z,10.20
2018-12-05T17:39:29.301Z,10.77
2018-12-05T17:41:56.764Z,11.13
2018-12-05T17:44:24.258Z,10.00
2018-12-05T17:46:51.675Z,11.43
2018-12-05T17:49:19.105Z,11.20
2018-12-05T17:51:46.529Z,11.13
2018-12-05T17:57:00.626Z,11.37
2018-12-05T17:59:28.082Z,11.00
2018-12-05T18:01:55.531Z,10.13
2018-12-05T18:04:22.968Z,11.13
2018-12-05T18:06:50.474Z,11.70
2018-12-05T18:09:17.974Z,11.87
2018-12-05T18:11:45.429Z,10.67
2018-12-05T18:14:14.537Z,12.00
2018-12-05T18:16:41.986Z,11.83
2018-12-05T18:19:09.476Z,10.90
2018-12-05T18:21:36.961Z,11.93
2018-12-05T18:24:04.561Z,11.90
2018-12-05T18:26:31.989Z,11.33
2018-12-05T18:28:59.421Z,11.70
2018-12-05T18:31:26.917Z,10.63
2018-12-05T18:33:54.409Z,11.47
2018-12-05T18:36:21.919Z,12.17
2018-12-05T18:38:49.377Z,11.87
2018-12-05T18:41:16.809Z,11.17
2018-12-05T18:43:44.338Z,10.67
2018-12-05T18:46:11.836Z,12.00
2018-12-05T18:48:39.370Z,19.50
2018-12-05T18:51:06.813Z,11.87
2018-12-05T18:53:34.383Z,11.90
2018-12-05T18:56:01.890Z,10.97
2018-12-05T18:58:29.323Z,11.40
2018-12-05T19:00:56.777Z,13.83
2018-12-05T19:03:24.305Z,12.07
2018-12-05T19:05:51.721Z,11.50
2018-12-05T19:08:19.229Z,11.50
2018-12-05T19:10:46.663Z,11.30
2018-12-05T19:13:14.118Z,11.20
2018-12-05T19:15:41.549Z,12.23
2018-12-05T19:18:08.969Z,11.33
2018-12-05T19:20:36.484Z,11.80
2018-12-05T19:23:03.952Z,10.23
2018-12-05T19:25:31.369Z,11.20
2018-12-05T19:27:58.897Z,13.00
2018-12-05T19:30:26.366Z,11.30
2018-12-05T19:32:53.821Z,11.20
2018-12-05T19:35:21.266Z,11.50
2018-12-05T19:37:48.800Z,11.03
2018-12-05T19:40:16.286Z,11.30
2018-12-05T19:42:43.715Z,11.00
2018-12-05T19:45:11.244Z,10.97
2018-12-05T19:47:38.717Z,12.17
2018-12-05T19:50:06.197Z,11.63
2018-12-05T19:52:33.925Z,11.33
2018-12-05T19:55:01.357Z,11.00
2018-12-05T19:57:28.906Z,12.07
2018-12-05T19:59:57.213Z,11.60
2018-12-05T20:02:24.734Z,12.10
2018-12-05T20:04:52.198Z,12.73
2018-12-05T20:07:19.637Z,12.23
2018-12-05T20:09:47.077Z,11.27
2018-12-05T20:12:14.561Z,11.33
2018-12-05T20:14:41.993Z,12.20
2018-12-05T20:17:09.473Z,12.07
2018-12-05T20:19:36.985Z,10.93
2018-12-05T20:22:04.465Z,12.43
2018-12-05T20:24:32.005Z,11.53
2018-12-05T20:26:59.442Z,11.87
2018-12-05T20:29:26.916Z,12.00
2018-12-05T20:31:54.440Z,11.63
2018-12-05T20:34:21.941Z,11.70
2018-12-05T20:36:49.426Z,11.70
2018-12-05T20:39:16.853Z,11.20
2018-12-05T20:41:44.281Z,12.17
2018-12-05T20:44:11.729Z,11.53
2018-12-05T20:46:39.158Z,11.37
2018-12-05T20:49:07.309Z,13.17
2018-12-05T20:51:35.238Z,12.47
2018-12-05T20:54:02.706Z,11.57
2018-12-05T20:56:30.230Z,12.23
2018-12-05T20:58:57.653Z,12.27
2018-12-05T21:01:25.396Z,11.70
2018-12-05T21:03:52.849Z,11.77
2018-12-05T21:06:20.297Z,11.37
2018-12-05T21:08:47.782Z,12.37
2018-12-05T21:11:15.357Z,11.40
2018-12-05T21:13:42.798Z,12.27
2018-12-05T21:16:10.323Z,12.27
2018-12-05T21:18:37.822Z,12.37
2018-12-05T21:21:05.353Z,10.73
2018-12-05T21:23:32.846Z,11.93
2018-12-05T21:26:00.333Z,10.73
2018-12-05T21:28:27.798Z,11.90
2018-12-05T21:30:55.329Z,12.03
2018-12-05T21:33:22.823Z,12.17
2018-12-05T21:35:50.313Z,11.57
2018-12-05T21:38:17.813Z,11.30
2018-12-05T21:40:45.327Z,12.47
2018-12-05T21:43:12.838Z,12.50
2018-12-05T21:45:40.287Z,11.20
2018-12-05T21:48:07.692Z,10.83
2018-12-05T21:50:35.234Z,11.30
2018-12-05T21:53:02.645Z,12.07
2018-12-05T21:55:30.068Z,10.90
2018-12-05T21:57:57.726Z,11.17
2018-12-05T22:00:25.201Z,10.97
2018-12-05T22:02:52.631Z,11.03
2018-12-05T22:05:20.161Z,10.43
2018-12-05T22:07:47.645Z,11.23
2018-12-05T22:10:16.137Z,10.90
2018-12-05T22:12:44.677Z,11.27
2018-12-05T22:15:12.137Z,10.80
2018-12-05T22:17:40.607Z,10.67
2018-12-05T22:20:08.034Z,11.17
2018-12-05T22:22:35.478Z,11.77
2018-12-05T22:25:03.133Z,10.60
2018-12-05T22:27:31.699Z,12.53
2018-12-05T22:30:00.148Z,11.73
2018-12-05T22:32:28.147Z,10.50
2018-12-05T22:34:55.629Z,10.00
2018-12-05T22:37:23.058Z,11.23
2018-12-05T22:39:50.477Z,11.57
2018-12-05T22:42:17.945Z,10.97
2018-12-05T22:44:45.375Z,11.20
2018-12-05T22:47:12.861Z,12.07
2018-12-05T22:49:40.286Z,11.87
2018-12-05T22:52:09.529Z,10.87
2018-12-05T22:54:36.974Z,11.07
2018-12-05T22:57:11.405Z,10.23
2018-12-05T22:59:38.941Z,11.37
2018-12-05T23:02:06.534Z,11.43
2018-12-05T23:04:34.053Z,11.33
2018-12-05T23:07:01.524Z,11.53
2018-12-05T23:09:29.005Z,10.60
2018-12-05T23:11:56.451Z,10.80
2018-12-05T23:14:23.913Z,10.70
2018-12-05T23:16:51.344Z,11.13
2018-12-05T23:19:18.830Z,11.43
2018-12-05T23:21:46.249Z,11.77
2018-12-05T23:24:13.959Z,11.57
2018-12-05T23:26:41.400Z,11.60
2018-12-05T23:29:08.816Z,10.73
2018-12-05T23:31:36.249Z,10.30
2018-12-05T23:34:03.799Z,11.40
2018-12-05T23:36:31.223Z,10.93
2018-12-05T23:38:58.709Z,10.80
2018-12-05T23:41:26.245Z,11.57
2018-12-05T23:43:53.678Z,10.43
2018-12-05T23:46:21.137Z,10.97
2018-12-05T23:48:48.629Z,11.27
2018-12-05T23:51:16.912Z,11.23
2018-12-05T23:53:44.367Z,10.63
2018-12-05T23:56:11.852Z,11.13
2018-12-05T23:58:39.387Z,10.53
